NSZ3516 EKCH-EGKK
Flight info
| Callsign | NSZ3516 |
|---|---|
| Flight time | 1h 40m |
| Altitude | 34000 |
| Route | LANGO2A LANGO DCT POGUG DCT RAXLU DCT EEL DCT GALSO Q63 ARREK Y4 TEBRA TEBRA2G |
| Aircraft | B38M/M-SDE2E3GHIJ1LRWXY/LB1 |
Departure
| Time | 2026-04-23 13:00 |
|---|---|
| Airport | Copenhagen Kastrup Airport (EKCH) |
Arrival
| Time | 2026-04-23 14:40 |
|---|---|
| Airport | London Gatwick Airport (EGKK) |
| Time | Latitude | Longitude | Altitude | Speed | Heading |
|---|---|---|---|---|---|
| 2026-04-23 12:34 | 55.62694 | 12.65095 | 19 ft | 0 kts | 290° |
| 2026-04-23 12:44 | 55.62690 | 12.65115 | 22 ft | 3 kts | 290° |
| 2026-04-23 12:44 | 55.62681 | 12.65153 | 21 ft | 3 kts | 297° |
| 2026-04-23 12:45 | 55.62669 | 12.65183 | 22 ft | 3 kts | 327° |
| 2026-04-23 12:45 | 55.62652 | 12.65192 | 19 ft | 3 kts | 355° |
| 2026-04-23 12:45 | 55.62629 | 12.65194 | 21 ft | 3 kts | 359° |
| 2026-04-23 12:45 | 55.62606 | 12.65195 | 19 ft | 3 kts | 359° |
| 2026-04-23 12:46 | 55.62594 | 12.65195 | 23 ft | 0 kts | 359° |
| 2026-04-23 12:50 | 55.62605 | 12.65195 | 19 ft | 4 kts | 359° |
| 2026-04-23 12:50 | 55.62646 | 12.65215 | 23 ft | 7 kts | 47° |
| 2026-04-23 12:50 | 55.62646 | 12.65300 | 21 ft | 6 kts | 126° |
| 2026-04-23 12:50 | 55.62603 | 12.65323 | 22 ft | 8 kts | 180° |
| 2026-04-23 12:51 | 55.62537 | 12.65324 | 19 ft | 11 kts | 179° |
| 2026-04-23 12:51 | 55.62474 | 12.65327 | 19 ft | 6 kts | 179° |
| 2026-04-23 12:51 | 55.62423 | 12.65329 | 19 ft | 9 kts | 179° |
| 2026-04-23 12:51 | 55.62375 | 12.65331 | 19 ft | 2 kts | 179° |
| 2026-04-23 12:52 | 55.62361 | 12.65331 | 19 ft | 3 kts | 179° |
| 2026-04-23 12:52 | 55.62326 | 12.65332 | 19 ft | 6 kts | 179° |
| 2026-04-23 12:52 | 55.62306 | 12.65323 | 20 ft | 0 kts | 207° |
| 2026-04-23 12:53 | 55.62303 | 12.65321 | 20 ft | 2 kts | 211° |
| 2026-04-23 12:54 | 55.62292 | 12.65283 | 20 ft | 5 kts | 260° |
| 2026-04-23 12:54 | 55.62278 | 12.65216 | 21 ft | 7 kts | 221° |
| 2026-04-23 12:54 | 55.62224 | 12.65192 | 20 ft | 9 kts | 196° |
| 2026-04-23 12:54 | 55.62161 | 12.65127 | 20 ft | 12 kts | 213° |
| 2026-04-23 12:55 | 55.62086 | 12.65039 | 21 ft | 14 kts | 213° |
| 2026-04-23 12:55 | 55.61994 | 12.64934 | 21 ft | 17 kts | 213° |
| 2026-04-23 12:55 | 55.61888 | 12.64812 | 19 ft | 20 kts | 213° |
| 2026-04-23 12:55 | 55.61767 | 12.64673 | 19 ft | 22 kts | 213° |
| 2026-04-23 12:56 | 55.61631 | 12.64517 | 21 ft | 24 kts | 213° |
| 2026-04-23 12:56 | 55.61483 | 12.64348 | 20 ft | 26 kts | 213° |
| 2026-04-23 12:56 | 55.61323 | 12.64162 | 19 ft | 28 kts | 213° |
| 2026-04-23 12:56 | 55.61153 | 12.63967 | 19 ft | 28 kts | 213° |
| 2026-04-23 12:57 | 55.61006 | 12.63798 | 20 ft | 23 kts | 213° |
| 2026-04-23 12:57 | 55.60887 | 12.63661 | 21 ft | 18 kts | 213° |
| 2026-04-23 12:57 | 55.60817 | 12.63587 | 19 ft | 9 kts | 197° |
| 2026-04-23 12:57 | 55.60765 | 12.63631 | 19 ft | 7 kts | 131° |
| 2026-04-23 12:58 | 55.60731 | 12.63697 | 20 ft | 8 kts | 131° |
| 2026-04-23 12:58 | 55.60693 | 12.63782 | 20 ft | 9 kts | 120° |
| 2026-04-23 12:58 | 55.60692 | 12.63882 | 22 ft | 8 kts | 64° |
| 2026-04-23 12:58 | 55.60721 | 12.63941 | 23 ft | 4 kts | 42° |
| 2026-04-23 12:59 | 55.60733 | 12.63961 | 21 ft | 3 kts | 42° |
| 2026-04-23 12:59 | 55.60791 | 12.64050 | 23 ft | 26 kts | 41° |
| 2026-04-23 12:59 | 55.61115 | 12.64548 | 19 ft | 97 kts | 41° |
| 2026-04-23 12:59 | 55.61789 | 12.65572 | 41 ft | 155 kts | 38° |
| 2026-04-23 13:00 | 55.62591 | 12.66879 | 734 ft | 157 kts | 37° |
| 2026-04-23 13:00 | 55.63449 | 12.68186 | 1545 ft | 163 kts | 34° |
| 2026-04-23 13:00 | 55.64263 | 12.69452 | 2512 ft | 152 kts | 35° |
| 2026-04-23 13:00 | 55.65078 | 12.70694 | 3079 ft | 159 kts | 33° |
| 2026-04-23 13:01 | 55.65952 | 12.71993 | 3556 ft | 173 kts | 34° |
| 2026-04-23 13:01 | 55.66925 | 12.73443 | 3994 ft | 189 kts | 34° |
| 2026-04-23 13:01 | 55.67959 | 12.74986 | 4404 ft | 205 kts | 34° |
| 2026-04-23 13:01 | 55.69117 | 12.76712 | 4722 ft | 232 kts | 35° |
| 2026-04-23 13:02 | 55.70309 | 12.78809 | 5204 ft | 255 kts | 52° |
| 2026-04-23 13:02 | 55.70862 | 12.81915 | 5834 ft | 277 kts | 86° |
| 2026-04-23 13:02 | 55.70356 | 12.85214 | 6755 ft | 286 kts | 117° |
| 2026-04-23 13:02 | 55.68935 | 12.87756 | 7417 ft | 298 kts | 152° |
| 2026-04-23 13:03 | 55.66979 | 12.88967 | 8227 ft | 301 kts | 162° |
| 2026-04-23 13:03 | 55.64965 | 12.90195 | 8866 ft | 310 kts | 160° |
| 2026-04-23 13:03 | 55.62916 | 12.91403 | 9669 ft | 312 kts | 169° |
| 2026-04-23 13:03 | 55.60762 | 12.91429 | 10367 ft | 311 kts | 196° |
| 2026-04-23 13:04 | 55.59417 | 12.90561 | 10756 ft | 313 kts | 212° |
| 2026-04-23 13:04 | 55.57694 | 12.88172 | 11143 ft | 322 kts | 230° |
| 2026-04-23 13:04 | 55.55518 | 12.84294 | 11717 ft | 342 kts | 229° |
| 2026-04-23 13:04 | 55.54401 | 12.82295 | 12153 ft | 345 kts | 229° |
| 2026-04-23 13:05 | 55.52769 | 12.79203 | 12974 ft | 344 kts | 238° |
| 2026-04-23 13:05 | 55.51743 | 12.75433 | 13690 ft | 339 kts | 261° |
| 2026-04-23 13:05 | 55.51445 | 12.71319 | 14394 ft | 341 kts | 269° |
| 2026-04-23 13:05 | 55.51245 | 12.67095 | 15120 ft | 345 kts | 270° |
| 2026-04-23 13:06 | 55.50887 | 12.58603 | 16551 ft | 353 kts | 270° |
| 2026-04-23 13:06 | 55.50716 | 12.54253 | 17255 ft | 358 kts | 270° |
| 2026-04-23 13:06 | 55.50545 | 12.49853 | 17945 ft | 362 kts | 270° |
| 2026-04-23 13:07 | 55.50313 | 12.43867 | 18811 ft | 367 kts | 270° |
| 2026-04-23 13:07 | 55.50197 | 12.40891 | 19199 ft | 369 kts | 270° |
| 2026-04-23 13:07 | 55.50018 | 12.36352 | 19810 ft | 372 kts | 270° |
| 2026-04-23 13:07 | 55.49837 | 12.31780 | 20398 ft | 375 kts | 270° |
| 2026-04-23 13:08 | 55.49603 | 12.27176 | 20972 ft | 381 kts | 263° |
| 2026-04-23 13:08 | 55.48710 | 12.22735 | 21605 ft | 391 kts | 245° |
| 2026-04-23 13:08 | 55.47172 | 12.18739 | 22193 ft | 397 kts | 238° |
| 2026-04-23 13:08 | 55.45531 | 12.14789 | 22753 ft | 401 kts | 237° |
| 2026-04-23 13:09 | 55.43862 | 12.10828 | 23341 ft | 404 kts | 237° |
| 2026-04-23 13:09 | 55.42168 | 12.06852 | 23889 ft | 407 kts | 237° |
| 2026-04-23 13:09 | 55.40458 | 12.02855 | 24362 ft | 411 kts | 236° |
| 2026-04-23 13:09 | 55.38728 | 11.98825 | 24836 ft | 414 kts | 236° |
| 2026-04-23 13:10 | 55.36981 | 11.94762 | 25305 ft | 417 kts | 236° |
| 2026-04-23 13:10 | 55.35224 | 11.90685 | 25767 ft | 420 kts | 236° |
| 2026-04-23 13:10 | 55.33473 | 11.86626 | 26218 ft | 423 kts | 236° |
| 2026-04-23 13:10 | 55.31685 | 11.82491 | 26662 ft | 427 kts | 236° |
| 2026-04-23 13:11 | 55.29883 | 11.78329 | 27115 ft | 430 kts | 236° |
| 2026-04-23 13:11 | 55.28068 | 11.74144 | 27560 ft | 433 kts | 235° |
| 2026-04-23 13:11 | 55.26233 | 11.69918 | 27998 ft | 436 kts | 235° |
| 2026-04-23 13:11 | 55.24516 | 11.65527 | 28417 ft | 437 kts | 241° |
| 2026-04-23 13:12 | 55.22888 | 11.61001 | 28829 ft | 440 kts | 240° |
| 2026-04-23 13:12 | 55.21227 | 11.56463 | 29251 ft | 443 kts | 239° |
| 2026-04-23 13:12 | 55.19543 | 11.51910 | 29662 ft | 446 kts | 239° |
| 2026-04-23 13:12 | 55.17844 | 11.47342 | 30055 ft | 449 kts | 239° |
| 2026-04-23 13:13 | 55.16158 | 11.42822 | 30424 ft | 452 kts | 239° |
| 2026-04-23 13:13 | 55.14431 | 11.38198 | 30766 ft | 454 kts | 239° |
| 2026-04-23 13:13 | 55.12698 | 11.33570 | 31139 ft | 455 kts | 239° |
| 2026-04-23 13:13 | 55.10957 | 11.28929 | 31485 ft | 457 kts | 239° |
| 2026-04-23 13:14 | 55.09209 | 11.24278 | 31827 ft | 459 kts | 239° |
| 2026-04-23 13:14 | 55.07455 | 11.19616 | 32172 ft | 461 kts | 239° |
| 2026-04-23 13:14 | 55.05685 | 11.14924 | 32505 ft | 463 kts | 238° |
| 2026-04-23 13:14 | 55.03913 | 11.10235 | 32840 ft | 465 kts | 238° |
| 2026-04-23 13:15 | 55.02128 | 11.05522 | 33283 ft | 464 kts | 238° |
| 2026-04-23 13:15 | 55.00353 | 11.00841 | 33791 ft | 461 kts | 238° |
| 2026-04-23 13:15 | 54.98585 | 10.96190 | 34227 ft | 461 kts | 238° |
| 2026-04-23 13:16 | 54.95046 | 10.86913 | 34250 ft | 458 kts | 237° |
| 2026-04-23 13:16 | 54.91209 | 10.78122 | 34243 ft | 459 kts | 234° |
| 2026-04-23 13:17 | 54.87360 | 10.69278 | 34249 ft | 459 kts | 234° |
| 2026-04-23 13:17 | 54.83538 | 10.60426 | 34249 ft | 458 kts | 238° |
| 2026-04-23 13:18 | 54.80202 | 10.51028 | 34250 ft | 457 kts | 239° |
| 2026-04-23 13:18 | 54.76803 | 10.41682 | 34255 ft | 457 kts | 239° |
| 2026-04-23 13:19 | 54.73390 | 10.32384 | 34256 ft | 457 kts | 239° |
| 2026-04-23 13:19 | 54.69838 | 10.23253 | 34270 ft | 458 kts | 236° |
| 2026-04-23 13:20 | 54.66200 | 10.14217 | 34273 ft | 458 kts | 236° |
| 2026-04-23 13:20 | 54.62587 | 10.05242 | 34268 ft | 457 kts | 236° |
| 2026-04-23 13:21 | 54.58946 | 9.96227 | 34281 ft | 458 kts | 236° |
| 2026-04-23 13:21 | 54.55301 | 9.87232 | 34277 ft | 459 kts | 236° |
| 2026-04-23 13:22 | 54.51631 | 9.78212 | 34294 ft | 459 kts | 236° |
| 2026-04-23 13:22 | 54.47977 | 9.69261 | 34285 ft | 460 kts | 236° |
| 2026-04-23 13:23 | 54.44287 | 9.60257 | 34289 ft | 461 kts | 235° |
| 2026-04-23 13:23 | 54.40588 | 9.51260 | 34297 ft | 462 kts | 235° |
| 2026-04-23 13:24 | 54.36880 | 9.42277 | 34294 ft | 461 kts | 235° |
| 2026-04-23 13:24 | 54.33172 | 9.33324 | 34295 ft | 460 kts | 234° |
| 2026-04-23 13:25 | 54.29461 | 9.24397 | 34293 ft | 459 kts | 234° |
| 2026-04-23 13:25 | 54.25748 | 9.15498 | 34302 ft | 459 kts | 234° |
| 2026-04-23 13:26 | 54.22022 | 9.06598 | 34301 ft | 459 kts | 234° |
| 2026-04-23 13:26 | 54.18320 | 8.97787 | 34311 ft | 459 kts | 234° |
| 2026-04-23 13:27 | 54.14590 | 8.88942 | 34323 ft | 458 kts | 233° |
| 2026-04-23 13:27 | 54.10860 | 8.80127 | 34321 ft | 459 kts | 233° |
| 2026-04-23 13:28 | 54.07120 | 8.71319 | 34333 ft | 458 kts | 233° |
| 2026-04-23 13:28 | 54.03372 | 8.62523 | 34342 ft | 458 kts | 233° |
| 2026-04-23 13:29 | 53.99623 | 8.53758 | 34346 ft | 458 kts | 233° |
| 2026-04-23 13:29 | 53.95885 | 8.45046 | 34354 ft | 459 kts | 232° |
| 2026-04-23 13:30 | 53.92123 | 8.36308 | 34343 ft | 458 kts | 232° |
| 2026-04-23 13:30 | 53.88348 | 8.27573 | 34350 ft | 459 kts | 232° |
| 2026-04-23 13:31 | 53.84570 | 8.18859 | 34360 ft | 459 kts | 231° |
| 2026-04-23 13:31 | 53.80778 | 8.10146 | 34366 ft | 459 kts | 232° |
| 2026-04-23 13:32 | 53.76984 | 8.01457 | 34368 ft | 459 kts | 231° |
| 2026-04-23 13:32 | 53.73214 | 7.92855 | 34374 ft | 458 kts | 231° |
| 2026-04-23 13:33 | 53.69419 | 7.84223 | 34373 ft | 457 kts | 231° |
| 2026-04-23 13:33 | 53.65621 | 7.75615 | 34375 ft | 457 kts | 231° |
| 2026-04-23 13:34 | 53.61822 | 7.67034 | 34373 ft | 456 kts | 231° |
| 2026-04-23 13:34 | 53.58019 | 7.58473 | 34369 ft | 456 kts | 231° |
| 2026-04-23 13:35 | 53.54214 | 7.49936 | 34377 ft | 456 kts | 231° |
| 2026-04-23 13:35 | 53.50405 | 7.41417 | 34383 ft | 456 kts | 230° |
| 2026-04-23 13:36 | 53.46596 | 7.32929 | 34398 ft | 455 kts | 230° |
| 2026-04-23 13:36 | 53.42801 | 7.24504 | 34400 ft | 454 kts | 230° |
| 2026-04-23 13:37 | 53.38984 | 7.16054 | 34396 ft | 454 kts | 230° |
| 2026-04-23 13:37 | 53.35166 | 7.07630 | 34400 ft | 454 kts | 230° |
| 2026-04-23 13:38 | 53.31346 | 6.99230 | 34401 ft | 453 kts | 230° |
| 2026-04-23 13:38 | 53.27520 | 6.90839 | 34402 ft | 453 kts | 230° |
| 2026-04-23 13:39 | 53.23700 | 6.82487 | 34423 ft | 453 kts | 230° |
| 2026-04-23 13:39 | 53.19875 | 6.74150 | 34427 ft | 452 kts | 230° |
| 2026-04-23 13:40 | 53.16117 | 6.65733 | 34424 ft | 454 kts | 236° |
| 2026-04-23 13:40 | 53.12807 | 6.56845 | 34432 ft | 454 kts | 235° |
| 2026-04-23 13:41 | 53.09418 | 6.47998 | 34429 ft | 453 kts | 234° |
| 2026-04-23 13:41 | 53.06010 | 6.39168 | 34431 ft | 453 kts | 234° |
| 2026-04-23 13:42 | 53.02590 | 6.30340 | 34419 ft | 453 kts | 234° |
| 2026-04-23 13:42 | 52.99176 | 6.21557 | 34431 ft | 452 kts | 234° |
| 2026-04-23 13:43 | 52.95760 | 6.12799 | 34424 ft | 452 kts | 234° |
| 2026-04-23 13:43 | 52.92338 | 6.04057 | 34432 ft | 452 kts | 234° |
| 2026-04-23 13:44 | 52.88933 | 5.95389 | 34422 ft | 452 kts | 233° |
| 2026-04-23 13:44 | 52.85492 | 5.86659 | 34421 ft | 452 kts | 233° |
| 2026-04-23 13:45 | 52.82635 | 5.79434 | 34442 ft | 451 kts | 233° |
| 2026-04-23 13:45 | 52.78609 | 5.69286 | 34431 ft | 451 kts | 233° |
| 2026-04-23 13:46 | 52.75164 | 5.60635 | 34441 ft | 451 kts | 233° |
| 2026-04-23 13:46 | 52.71733 | 5.52047 | 34451 ft | 451 kts | 233° |
| 2026-04-23 13:47 | 52.68278 | 5.43429 | 34446 ft | 450 kts | 233° |
| 2026-04-23 13:47 | 52.64818 | 5.34829 | 34437 ft | 450 kts | 232° |
| 2026-04-23 13:48 | 52.61352 | 5.26243 | 34436 ft | 450 kts | 232° |
| 2026-04-23 13:48 | 52.57882 | 5.17675 | 34441 ft | 449 kts | 232° |
| 2026-04-23 13:49 | 52.54414 | 5.09142 | 34440 ft | 449 kts | 232° |
| 2026-04-23 13:49 | 52.50939 | 5.00619 | 34451 ft | 449 kts | 232° |
| 2026-04-23 13:50 | 52.47462 | 4.92119 | 34449 ft | 448 kts | 232° |
| 2026-04-23 13:50 | 52.43982 | 4.83641 | 34451 ft | 448 kts | 232° |
| 2026-04-23 13:51 | 52.40513 | 4.75220 | 34455 ft | 448 kts | 232° |
| 2026-04-23 13:51 | 52.37023 | 4.66772 | 34455 ft | 448 kts | 231° |
| 2026-04-23 13:52 | 52.34096 | 4.59709 | 34454 ft | 447 kts | 231° |
| 2026-04-23 13:52 | 52.30031 | 4.49935 | 34457 ft | 447 kts | 231° |
| 2026-04-23 13:53 | 52.27116 | 4.42945 | 34454 ft | 447 kts | 231° |
| 2026-04-23 13:53 | 52.23606 | 4.34558 | 34457 ft | 447 kts | 231° |
| 2026-04-23 13:54 | 52.20095 | 4.26195 | 34449 ft | 447 kts | 231° |
| 2026-04-23 13:54 | 52.16579 | 4.17846 | 34450 ft | 447 kts | 231° |
| 2026-04-23 13:55 | 52.13053 | 4.09501 | 34448 ft | 447 kts | 231° |
| 2026-04-23 13:55 | 52.09527 | 4.01184 | 34451 ft | 447 kts | 231° |
| 2026-04-23 13:56 | 52.05994 | 3.92876 | 34462 ft | 446 kts | 230° |
| 2026-04-23 13:56 | 52.02455 | 3.84582 | 34463 ft | 446 kts | 230° |
| 2026-04-23 13:57 | 51.98911 | 3.76301 | 34463 ft | 446 kts | 230° |
| 2026-04-23 13:57 | 51.95364 | 3.68044 | 34466 ft | 446 kts | 230° |
| 2026-04-23 13:58 | 51.91808 | 3.59790 | 34467 ft | 446 kts | 230° |
| 2026-04-23 13:58 | 51.88272 | 3.51605 | 34471 ft | 446 kts | 230° |
| 2026-04-23 13:59 | 51.84715 | 3.43395 | 34466 ft | 446 kts | 230° |
| 2026-04-23 13:59 | 51.81148 | 3.35185 | 34464 ft | 446 kts | 230° |
| 2026-04-23 14:00 | 51.78181 | 3.28376 | 34466 ft | 445 kts | 230° |
| 2026-04-23 14:00 | 51.74129 | 3.18697 | 34436 ft | 444 kts | 240° |
| 2026-04-23 14:01 | 51.72688 | 3.08735 | 34129 ft | 429 kts | 256° |
| 2026-04-23 14:01 | 51.72240 | 3.03984 | 33596 ft | 431 kts | 257° |
| 2026-04-23 14:01 | 51.71801 | 2.99184 | 32995 ft | 431 kts | 257° |
| 2026-04-23 14:01 | 51.71372 | 2.94414 | 32520 ft | 428 kts | 257° |
| 2026-04-23 14:02 | 51.70947 | 2.89690 | 32071 ft | 424 kts | 257° |
| 2026-04-23 14:02 | 51.70524 | 2.84995 | 31589 ft | 422 kts | 257° |
| 2026-04-23 14:02 | 51.70102 | 2.80335 | 31095 ft | 419 kts | 257° |
| 2026-04-23 14:02 | 51.69680 | 2.75693 | 30623 ft | 417 kts | 257° |
| 2026-04-23 14:03 | 51.69260 | 2.71085 | 30120 ft | 414 kts | 257° |
| 2026-04-23 14:03 | 51.68848 | 2.66535 | 29663 ft | 409 kts | 257° |
| 2026-04-23 14:03 | 51.68443 | 2.62000 | 29177 ft | 406 kts | 257° |
| 2026-04-23 14:03 | 51.68048 | 2.57592 | 28771 ft | 401 kts | 257° |
| 2026-04-23 14:04 | 51.67649 | 2.53171 | 28327 ft | 397 kts | 257° |
| 2026-04-23 14:04 | 51.67252 | 2.48791 | 27837 ft | 394 kts | 257° |
| 2026-04-23 14:04 | 51.66854 | 2.44431 | 27380 ft | 391 kts | 257° |
| 2026-04-23 14:04 | 51.66459 | 2.40118 | 26959 ft | 387 kts | 257° |
| 2026-04-23 14:05 | 51.66067 | 2.35847 | 26528 ft | 384 kts | 257° |
| 2026-04-23 14:05 | 51.65675 | 2.31600 | 26075 ft | 382 kts | 257° |
| 2026-04-23 14:05 | 51.65284 | 2.27372 | 25575 ft | 381 kts | 258° |
| 2026-04-23 14:05 | 51.64893 | 2.23169 | 25138 ft | 379 kts | 258° |
| 2026-04-23 14:06 | 51.64501 | 2.18977 | 24698 ft | 377 kts | 258° |
| 2026-04-23 14:06 | 51.64117 | 2.14877 | 24274 ft | 375 kts | 258° |
| 2026-04-23 14:06 | 51.63730 | 2.10734 | 23798 ft | 373 kts | 258° |
| 2026-04-23 14:06 | 51.63350 | 2.06611 | 23275 ft | 371 kts | 258° |
| 2026-04-23 14:07 | 51.62970 | 2.02521 | 22858 ft | 367 kts | 258° |
| 2026-04-23 14:07 | 51.62226 | 1.94527 | 22479 ft | 357 kts | 258° |
| 2026-04-23 14:07 | 51.61856 | 1.90564 | 22468 ft | 359 kts | 258° |
| 2026-04-23 14:08 | 51.61466 | 1.86602 | 22463 ft | 358 kts | 255° |
| 2026-04-23 14:08 | 51.60555 | 1.82943 | 22462 ft | 350 kts | 233° |
| 2026-04-23 14:08 | 51.59056 | 1.79893 | 22468 ft | 348 kts | 227° |
| 2026-04-23 14:08 | 51.57489 | 1.76917 | 22242 ft | 348 kts | 226° |
| 2026-04-23 14:09 | 51.55919 | 1.73993 | 21612 ft | 353 kts | 226° |
| 2026-04-23 14:09 | 51.54301 | 1.71013 | 20926 ft | 353 kts | 226° |
| 2026-04-23 14:09 | 51.52688 | 1.68067 | 20259 ft | 348 kts | 226° |
| 2026-04-23 14:09 | 51.51095 | 1.65172 | 19595 ft | 344 kts | 226° |
| 2026-04-23 14:10 | 51.49528 | 1.62289 | 18952 ft | 342 kts | 230° |
| 2026-04-23 14:10 | 51.48411 | 1.58931 | 18229 ft | 343 kts | 248° |
| 2026-04-23 14:10 | 51.47574 | 1.55324 | 17464 ft | 347 kts | 248° |
| 2026-04-23 14:10 | 51.46726 | 1.51692 | 16720 ft | 349 kts | 249° |
| 2026-04-23 14:11 | 51.45877 | 1.48025 | 15992 ft | 352 kts | 249° |
| 2026-04-23 14:11 | 51.45024 | 1.44335 | 15272 ft | 354 kts | 249° |
| 2026-04-23 14:11 | 51.44180 | 1.40689 | 14604 ft | 355 kts | 249° |
| 2026-04-23 14:11 | 51.42982 | 1.37342 | 14453 ft | 339 kts | 226° |
| 2026-04-23 14:12 | 51.41225 | 1.34942 | 14378 ft | 331 kts | 215° |
| 2026-04-23 14:12 | 51.39387 | 1.32717 | 14085 ft | 330 kts | 215° |
| 2026-04-23 14:12 | 51.37558 | 1.30523 | 13840 ft | 328 kts | 214° |
| 2026-04-23 14:12 | 51.35726 | 1.28343 | 13660 ft | 327 kts | 214° |
| 2026-04-23 14:13 | 51.33900 | 1.26179 | 13483 ft | 326 kts | 214° |
| 2026-04-23 14:13 | 51.32080 | 1.24026 | 13321 ft | 326 kts | 214° |
| 2026-04-23 14:13 | 51.30258 | 1.21876 | 13141 ft | 325 kts | 214° |
| 2026-04-23 14:13 | 51.28467 | 1.19762 | 12977 ft | 324 kts | 214° |
| 2026-04-23 14:14 | 51.26653 | 1.17629 | 12803 ft | 323 kts | 214° |
| 2026-04-23 14:14 | 51.24843 | 1.15500 | 12639 ft | 322 kts | 214° |
| 2026-04-23 14:14 | 51.23039 | 1.13381 | 12462 ft | 321 kts | 214° |
| 2026-04-23 14:14 | 51.21245 | 1.11273 | 12303 ft | 321 kts | 214° |
| 2026-04-23 14:15 | 51.19447 | 1.09165 | 12126 ft | 320 kts | 214° |
| 2026-04-23 14:15 | 51.17657 | 1.07067 | 11967 ft | 319 kts | 214° |
| 2026-04-23 14:15 | 51.15865 | 1.04972 | 11791 ft | 319 kts | 214° |
| 2026-04-23 14:15 | 51.14082 | 1.02887 | 11622 ft | 318 kts | 214° |
| 2026-04-23 14:16 | 51.12324 | 1.00834 | 11465 ft | 318 kts | 213° |
| 2026-04-23 14:16 | 51.10544 | 0.98756 | 11283 ft | 316 kts | 214° |
| 2026-04-23 14:16 | 51.08773 | 0.96690 | 11125 ft | 315 kts | 214° |
| 2026-04-23 14:16 | 51.07007 | 0.94630 | 10960 ft | 315 kts | 214° |
| 2026-04-23 14:17 | 51.05508 | 0.92115 | 10756 ft | 314 kts | 238° |
| 2026-04-23 14:17 | 51.04487 | 0.89103 | 10636 ft | 304 kts | 238° |
| 2026-04-23 14:17 | 51.03591 | 0.86128 | 10487 ft | 298 kts | 256° |
| 2026-04-23 14:17 | 51.03493 | 0.82876 | 10286 ft | 296 kts | 282° |
| 2026-04-23 14:18 | 51.04254 | 0.79897 | 10054 ft | 289 kts | 309° |
| 2026-04-23 14:18 | 51.05681 | 0.77816 | 9837 ft | 280 kts | 335° |
| 2026-04-23 14:18 | 51.07502 | 0.76961 | 9625 ft | 271 kts | 2° |
| 2026-04-23 14:18 | 51.09304 | 0.77507 | 9403 ft | 261 kts | 30° |
| 2026-04-23 14:19 | 51.10678 | 0.79287 | 9203 ft | 254 kts | 56° |
| 2026-04-23 14:19 | 51.11577 | 0.81699 | 9036 ft | 255 kts | 57° |
| 2026-04-23 14:19 | 51.12889 | 0.83587 | 8828 ft | 259 kts | 30° |
| 2026-04-23 14:19 | 51.14644 | 0.84280 | 8629 ft | 265 kts | 5° |
| 2026-04-23 14:20 | 51.16498 | 0.84208 | 8436 ft | 268 kts | 1° |
| 2026-04-23 14:20 | 51.18358 | 0.84071 | 8223 ft | 268 kts | 1° |
| 2026-04-23 14:20 | 51.20217 | 0.83921 | 8012 ft | 269 kts | 358° |
| 2026-04-23 14:20 | 51.22009 | 0.83177 | 7780 ft | 274 kts | 335° |
| 2026-04-23 14:21 | 51.23457 | 0.81206 | 7542 ft | 280 kts | 308° |
| 2026-04-23 14:21 | 51.24197 | 0.78352 | 7442 ft | 281 kts | 279° |
| 2026-04-23 14:21 | 51.24099 | 0.75238 | 7480 ft | 284 kts | 258° |
| 2026-04-23 14:21 | 51.23668 | 0.72164 | 7498 ft | 285 kts | 256° |
| 2026-04-23 14:22 | 51.23215 | 0.69089 | 7496 ft | 285 kts | 256° |
| 2026-04-23 14:22 | 51.22726 | 0.66035 | 7503 ft | 284 kts | 252° |
| 2026-04-23 14:22 | 51.22137 | 0.63037 | 7496 ft | 284 kts | 251° |
| 2026-04-23 14:22 | 51.21535 | 0.60066 | 7497 ft | 284 kts | 251° |
| 2026-04-23 14:23 | 51.20931 | 0.57070 | 7514 ft | 284 kts | 251° |
| 2026-04-23 14:23 | 51.20324 | 0.54075 | 7523 ft | 284 kts | 251° |
| 2026-04-23 14:23 | 51.19718 | 0.51072 | 7503 ft | 284 kts | 251° |
| 2026-04-23 14:23 | 51.19111 | 0.48072 | 7509 ft | 285 kts | 251° |
| 2026-04-23 14:24 | 51.18505 | 0.45076 | 7505 ft | 285 kts | 251° |
| 2026-04-23 14:24 | 51.17894 | 0.42067 | 7505 ft | 285 kts | 251° |
| 2026-04-23 14:24 | 51.17560 | 0.40421 | 7496 ft | 285 kts | 251° |
| 2026-04-23 14:24 | 51.16949 | 0.37418 | 7521 ft | 285 kts | 251° |
| 2026-04-23 14:25 | 51.16338 | 0.34420 | 7502 ft | 285 kts | 251° |
| 2026-04-23 14:25 | 51.15729 | 0.31418 | 7506 ft | 285 kts | 251° |
| 2026-04-23 14:25 | 51.15130 | 0.28451 | 7523 ft | 285 kts | 251° |
| 2026-04-23 14:25 | 51.14522 | 0.25453 | 7496 ft | 284 kts | 251° |
| 2026-04-23 14:26 | 51.13917 | 0.22462 | 7504 ft | 285 kts | 251° |
| 2026-04-23 14:26 | 51.13308 | 0.19456 | 7486 ft | 285 kts | 251° |
| 2026-04-23 14:26 | 51.12698 | 0.16456 | 7490 ft | 285 kts | 251° |
| 2026-04-23 14:26 | 51.12092 | 0.13461 | 7479 ft | 284 kts | 251° |
| 2026-04-23 14:27 | 51.11484 | 0.10466 | 7422 ft | 284 kts | 251° |
| 2026-04-23 14:27 | 51.10879 | 0.07473 | 7434 ft | 284 kts | 251° |
| 2026-04-23 14:27 | 51.10270 | 0.04479 | 7423 ft | 284 kts | 251° |
| 2026-04-23 14:27 | 51.09668 | 0.01518 | 7428 ft | 285 kts | 251° |
| 2026-04-23 14:28 | 51.09061 | -0.01473 | 7427 ft | 285 kts | 251° |
| 2026-04-23 14:28 | 51.08454 | -0.04475 | 7428 ft | 285 kts | 251° |
| 2026-04-23 14:28 | 51.07844 | -0.07479 | 7436 ft | 285 kts | 251° |
| 2026-04-23 14:28 | 51.07235 | -0.10481 | 7420 ft | 285 kts | 251° |
| 2026-04-23 14:29 | 51.06624 | -0.13479 | 7435 ft | 285 kts | 251° |
| 2026-04-23 14:29 | 51.06013 | -0.16477 | 7347 ft | 286 kts | 251° |
| 2026-04-23 14:29 | 51.05405 | -0.19477 | 7063 ft | 285 kts | 251° |
| 2026-04-23 14:29 | 51.04798 | -0.22488 | 6750 ft | 285 kts | 251° |
| 2026-04-23 14:30 | 51.04196 | -0.25468 | 6431 ft | 282 kts | 250° |
| 2026-04-23 14:30 | 51.03610 | -0.28391 | 6111 ft | 279 kts | 251° |
| 2026-04-23 14:30 | 51.03028 | -0.31315 | 5783 ft | 269 kts | 251° |
| 2026-04-23 14:30 | 51.02490 | -0.34047 | 5527 ft | 257 kts | 251° |
| 2026-04-23 14:31 | 51.01971 | -0.36722 | 5292 ft | 250 kts | 251° |
| 2026-04-23 14:31 | 51.01456 | -0.39380 | 4943 ft | 251 kts | 251° |
| 2026-04-23 14:31 | 51.00943 | -0.42021 | 4647 ft | 251 kts | 251° |
| 2026-04-23 14:31 | 51.00434 | -0.44631 | 4409 ft | 243 kts | 250° |
| 2026-04-23 14:32 | 50.99944 | -0.47176 | 4177 ft | 238 kts | 251° |
| 2026-04-23 14:32 | 50.99471 | -0.49674 | 3937 ft | 236 kts | 253° |
| 2026-04-23 14:32 | 50.99449 | -0.52295 | 3521 ft | 246 kts | 285° |
| 2026-04-23 14:32 | 51.00287 | -0.54621 | 3218 ft | 241 kts | 320° |
| 2026-04-23 14:33 | 51.01677 | -0.55816 | 3192 ft | 218 kts | 353° |
| 2026-04-23 14:33 | 51.03071 | -0.55658 | 3044 ft | 193 kts | 29° |
| 2026-04-23 14:33 | 51.04141 | -0.54608 | 3085 ft | 177 kts | 40° |
| 2026-04-23 14:33 | 51.05139 | -0.53469 | 3071 ft | 176 kts | 41° |
| 2026-04-23 14:34 | 51.06132 | -0.52329 | 2975 ft | 175 kts | 41° |
| 2026-04-23 14:34 | 51.07119 | -0.51198 | 2995 ft | 175 kts | 41° |
| 2026-04-23 14:34 | 51.08110 | -0.50057 | 2984 ft | 176 kts | 40° |
| 2026-04-23 14:34 | 51.09108 | -0.48927 | 3033 ft | 176 kts | 40° |
| 2026-04-23 14:35 | 51.10108 | -0.47799 | 2971 ft | 175 kts | 41° |
| 2026-04-23 14:35 | 51.10920 | -0.46422 | 2936 ft | 168 kts | 69° |
| 2026-04-23 14:35 | 51.11246 | -0.44669 | 3011 ft | 169 kts | 78° |
| 2026-04-23 14:35 | 51.11512 | -0.42843 | 2970 ft | 170 kts | 79° |
| 2026-04-23 14:36 | 51.11769 | -0.40976 | 2728 ft | 174 kts | 79° |
| 2026-04-23 14:36 | 51.12024 | -0.39132 | 2552 ft | 166 kts | 78° |
| 2026-04-23 14:36 | 51.12265 | -0.37362 | 2326 ft | 159 kts | 79° |
| 2026-04-23 14:36 | 51.12499 | -0.35674 | 2183 ft | 154 kts | 76° |
| 2026-04-23 14:37 | 51.12723 | -0.34102 | 1981 ft | 142 kts | 77° |
| 2026-04-23 14:37 | 51.12937 | -0.32579 | 1770 ft | 143 kts | 78° |
| 2026-04-23 14:37 | 51.13152 | -0.31029 | 1591 ft | 144 kts | 76° |
| 2026-04-23 14:37 | 51.13358 | -0.29500 | 1390 ft | 137 kts | 76° |
| 2026-04-23 14:38 | 51.13560 | -0.28075 | 1189 ft | 131 kts | 77° |
| 2026-04-23 14:38 | 51.13757 | -0.26646 | 999 ft | 132 kts | 77° |
| 2026-04-23 14:38 | 51.13965 | -0.25209 | 829 ft | 133 kts | 77° |
| 2026-04-23 14:38 | 51.14159 | -0.23803 | 657 ft | 129 kts | 77° |
| 2026-04-23 14:39 | 51.14344 | -0.22397 | 454 ft | 131 kts | 76° |
| 2026-04-23 14:39 | 51.14550 | -0.20976 | 283 ft | 131 kts | 76° |
| 2026-04-23 14:39 | 51.14727 | -0.19629 | 220 ft | 113 kts | 75° |
| 2026-04-23 14:39 | 51.14874 | -0.18612 | 216 ft | 72 kts | 77° |
| 2026-04-23 14:40 | 51.14950 | -0.18058 | 210 ft | 39 kts | 77° |
| 2026-04-23 14:40 | 51.15006 | -0.17656 | 214 ft | 34 kts | 78° |
| 2026-04-23 14:40 | 51.15066 | -0.17342 | 213 ft | 26 kts | 63° |
| 2026-04-23 14:40 | 51.15136 | -0.17215 | 211 ft | 10 kts | 7° |
| 2026-04-23 14:41 | 51.15175 | -0.17240 | 213 ft | 0 kts | 324° |
| 2026-04-23 14:42 | 51.15179 | -0.17244 | 211 ft | 3 kts | 324° |
| 2026-04-23 14:42 | 51.15218 | -0.17289 | 208 ft | 11 kts | 324° |
| 2026-04-23 14:42 | 51.15285 | -0.17351 | 212 ft | 11 kts | 344° |
| 2026-04-23 14:43 | 51.15341 | -0.17364 | 207 ft | 7 kts | 12° |
| 2026-04-23 14:43 | 51.15369 | -0.17293 | 209 ft | 9 kts | 71° |
| 2026-04-23 14:43 | 51.15391 | -0.17184 | 213 ft | 10 kts | 68° |
| 2026-04-23 14:43 | 51.15413 | -0.17095 | 211 ft | 9 kts | 76° |
| 2026-04-23 14:44 | 51.15428 | -0.16985 | 207 ft | 12 kts | 78° |
| 2026-04-23 14:44 | 51.15445 | -0.16858 | 207 ft | 10 kts | 77° |
| 2026-04-23 14:44 | 51.15455 | -0.16788 | 213 ft | 2 kts | 76° |
| 2026-04-23 14:44 | 51.15468 | -0.16773 | 213 ft | 3 kts | 9° |
| 2026-04-23 14:45 | 51.15488 | -0.16776 | 211 ft | 3 kts | 348° |
| 2026-04-23 14:45 | 51.15501 | -0.16781 | 207 ft | 0 kts | 347° |
| 2026-04-23 14:45 | 51.15505 | -0.16782 | 212 ft | 0 kts | 347° |